createdAt,value
2019-03-30T00:00:12.846Z,20.90
2019-03-30T00:01:20.967Z,22.62
2019-03-30T00:02:25.952Z,28.30
2019-03-30T00:03:29.626Z,26.93
2019-03-30T00:04:33.281Z,24.98
2019-03-30T00:05:36.968Z,24.63
2019-03-30T00:06:40.609Z,22.25
2019-03-30T00:07:44.216Z,24.70
2019-03-30T00:08:47.868Z,24.18
2019-03-30T00:09:51.522Z,29.12
2019-03-30T00:10:55.129Z,26.68
2019-03-30T00:11:58.731Z,23.32
2019-03-30T00:13:02.331Z,25.15
2019-03-30T00:14:05.950Z,24.77
2019-03-30T00:15:09.592Z,20.50
2019-03-30T00:16:13.188Z,22.98
2019-03-30T00:17:16.788Z,26.55
2019-03-30T00:18:20.447Z,33.92
2019-03-30T00:19:34.413Z,26.82
2019-03-30T00:20:29.540Z,27.32
2019-03-30T00:21:33.145Z,23.45
2019-03-30T00:22:36.759Z,23.50
2019-03-30T00:23:40.366Z,21.85
2019-03-30T00:24:44.006Z,29.00
2019-03-30T00:25:47.613Z,25.37
2019-03-30T00:26:51.217Z,23.67
2019-03-30T00:27:54.820Z,21.95
2019-03-30T00:28:58.474Z,24.32
2019-03-30T00:30:02.079Z,26.25
2019-03-30T00:31:05.760Z,25.62
2019-03-30T00:32:09.409Z,29.98
2019-03-30T00:33:13.048Z,26.52
2019-03-30T00:34:16.668Z,23.80
2019-03-30T00:35:20.266Z,24.92
2019-03-30T00:36:23.875Z,24.70
2019-03-30T00:37:27.481Z,24.10
2019-03-30T00:38:31.126Z,26.55
2019-03-30T00:39:34.725Z,23.55
2019-03-30T00:40:38.797Z,22.90
2019-03-30T00:41:42.472Z,21.73
2019-03-30T00:42:46.131Z,27.32
2019-03-30T00:43:49.731Z,25.52
2019-03-30T00:44:53.337Z,25.57
2019-03-30T00:45:56.952Z,25.32
2019-03-30T00:47:00.556Z,26.48
2019-03-30T00:48:04.275Z,20.35
2019-03-30T00:49:07.870Z,24.55
2019-03-30T00:50:11.601Z,25.00
2019-03-30T00:51:15.235Z,26.23
2019-03-30T00:52:18.856Z,21.97
2019-03-30T00:53:22.702Z,25.65
2019-03-30T00:54:26.312Z,27.67
2019-03-30T00:55:29.906Z,23.90
2019-03-30T00:56:33.555Z,24.67
2019-03-30T00:57:37.188Z,26.23
2019-03-30T00:58:41.001Z,26.82
2019-03-30T00:59:44.608Z,23.07
2019-03-30T01:00:48.492Z,26.95
2019-03-30T01:01:52.077Z,24.37
2019-03-30T01:02:55.699Z,24.10
2019-03-30T01:03:59.362Z,26.20
2019-03-30T01:05:03.034Z,22.22
2019-03-30T01:06:06.717Z,22.00
2019-03-30T01:07:10.508Z,24.25
2019-03-30T01:08:14.117Z,24.72
2019-03-30T01:09:17.727Z,21.27
2019-03-30T01:10:21.563Z,24.60
2019-03-30T01:11:25.235Z,25.00
2019-03-30T01:12:28.970Z,27.07
2019-03-30T01:13:32.775Z,25.85
2019-03-30T01:14:36.823Z,23.65
2019-03-30T01:15:40.511Z,27.17
2019-03-30T01:16:44.194Z,25.40
2019-03-30T01:17:47.866Z,26.68
2019-03-30T01:18:51.506Z,25.40
2019-03-30T01:20:02.724Z,24.82
2019-03-30T01:21:00.359Z,24.90
2019-03-30T01:22:04.010Z,23.15
2019-03-30T01:23:07.611Z,24.57
2019-03-30T01:24:11.214Z,26.20
2019-03-30T01:25:14.824Z,23.73
2019-03-30T01:26:18.432Z,23.20
2019-03-30T01:27:22.081Z,29.45
2019-03-30T01:28:25.768Z,21.90
2019-03-30T01:29:29.424Z,24.63
2019-03-30T01:30:33.010Z,22.42
2019-03-30T01:31:36.619Z,24.82
2019-03-30T01:32:40.231Z,28.73
2019-03-30T01:33:43.864Z,25.05
2019-03-30T01:34:47.471Z,27.75
2019-03-30T01:35:51.121Z,24.35
2019-03-30T01:36:54.721Z,28.50
2019-03-30T01:37:58.363Z,27.40
2019-03-30T01:39:01.972Z,26.12
2019-03-30T01:40:07.951Z,28.95
2019-03-30T01:41:11.617Z,25.43
2019-03-30T01:42:15.287Z,26.10
2019-03-30T01:43:18.902Z,24.40
2019-03-30T01:44:22.554Z,25.82
2019-03-30T01:45:26.220Z,28.32
2019-03-30T01:46:29.832Z,26.10
2019-03-30T01:47:33.437Z,23.92
2019-03-30T01:48:37.140Z,25.37
2019-03-30T01:49:40.789Z,22.32
2019-03-30T01:50:44.383Z,22.75
2019-03-30T01:51:48.002Z,23.27
2019-03-30T01:52:51.605Z,25.68
2019-03-30T01:53:55.249Z,24.07
2019-03-30T01:54:58.848Z,27.32
2019-03-30T01:56:02.494Z,21.17
2019-03-30T01:57:06.097Z,23.55
2019-03-30T01:58:09.691Z,22.65
2019-03-30T01:59:14.343Z,24.50
2019-03-30T02:00:18.404Z,29.23
2019-03-30T02:01:22.058Z,23.05
2019-03-30T02:02:25.673Z,27.20
2019-03-30T02:03:29.277Z,22.17
2019-03-30T02:04:32.884Z,28.50
2019-03-30T02:05:36.710Z,22.55
2019-03-30T02:06:40.304Z,23.92
2019-03-30T02:07:43.942Z,25.82
2019-03-30T02:08:47.543Z,25.95
2019-03-30T02:09:51.151Z,25.92
2019-03-30T02:10:54.770Z,24.57
2019-03-30T02:11:58.432Z,28.83
2019-03-30T02:13:02.033Z,25.95
2019-03-30T02:14:05.702Z,27.80
2019-03-30T02:15:10.254Z,22.45
2019-03-30T02:16:13.862Z,26.90
2019-03-30T02:17:20.171Z,21.10
2019-03-30T02:18:22.783Z,23.62
2019-03-30T02:19:26.461Z,24.95
2019-03-30T02:20:41.940Z,23.73
2019-03-30T02:21:45.552Z,22.90
2019-03-30T02:22:49.169Z,26.37
2019-03-30T02:23:52.770Z,24.47
2019-03-30T02:24:56.442Z,24.10
2019-03-30T02:26:00.043Z,20.75
2019-03-30T02:27:03.648Z,24.32
2019-03-30T02:28:08.300Z,25.70
2019-03-30T02:29:11.998Z,21.45
2019-03-30T02:30:15.705Z,23.75
2019-03-30T02:31:19.461Z,20.00
2019-03-30T02:32:23.082Z,31.73
2019-03-30T02:33:26.686Z,23.92
2019-03-30T02:34:30.338Z,23.65
2019-03-30T02:35:33.947Z,26.68
2019-03-30T02:36:37.602Z,27.05
2019-03-30T02:37:41.228Z,21.85
2019-03-30T02:38:45.013Z,22.27
2019-03-30T02:39:48.618Z,25.80
2019-03-30T02:40:52.223Z,29.25
2019-03-30T02:41:55.831Z,26.07
2019-03-30T02:42:59.764Z,24.63
2019-03-30T02:44:03.441Z,28.95
2019-03-30T02:45:07.171Z,24.80
2019-03-30T02:46:10.787Z,25.15
2019-03-30T02:47:14.383Z,23.83
2019-03-30T02:48:18.030Z,29.48
2019-03-30T02:49:21.642Z,28.60
2019-03-30T02:50:25.253Z,23.50
2019-03-30T02:51:28.865Z,29.27
2019-03-30T02:52:32.470Z,23.85
2019-03-30T02:53:36.132Z,26.50
2019-03-30T02:54:39.733Z,26.33
2019-03-30T02:55:43.378Z,24.95
2019-03-30T02:56:46.997Z,32.78
2019-03-30T02:57:50.674Z,29.52
2019-03-30T02:58:54.272Z,26.87
2019-03-30T02:59:57.884Z,28.25
2019-03-30T03:01:01.662Z,27.98
2019-03-30T03:02:05.326Z,25.92
2019-03-30T03:03:09.038Z,33.02
2019-03-30T03:04:12.633Z,28.25
2019-03-30T03:05:16.379Z,28.50
2019-03-30T03:06:20.214Z,26.12
2019-03-30T03:07:23.815Z,27.58
2019-03-30T03:08:27.417Z,32.67
2019-03-30T03:09:31.035Z,24.63
2019-03-30T03:10:34.714Z,26.62
2019-03-30T03:11:38.598Z,26.95
2019-03-30T03:12:42.205Z,27.80
2019-03-30T03:13:45.808Z,26.02
2019-03-30T03:14:49.412Z,27.85
2019-03-30T03:15:53.014Z,27.25
2019-03-30T03:16:56.661Z,27.80
2019-03-30T03:18:00.270Z,26.33
2019-03-30T03:19:03.872Z,25.40
2019-03-30T03:20:07.950Z,30.10
2019-03-30T03:21:11.587Z,26.33
2019-03-30T03:22:15.238Z,29.95
2019-03-30T03:23:18.861Z,25.88
2019-03-30T03:24:22.466Z,28.52
2019-03-30T03:25:26.068Z,29.77
2019-03-30T03:26:29.684Z,28.15
2019-03-30T03:27:33.331Z,29.87
2019-03-30T03:28:36.932Z,27.02
2019-03-30T03:29:43.623Z,29.23
2019-03-30T03:30:45.847Z,25.27
2019-03-30T03:31:49.449Z,30.30
2019-03-30T03:32:53.062Z,25.27
2019-03-30T03:33:56.710Z,24.40
2019-03-30T03:35:00.783Z,26.95
2019-03-30T03:36:04.430Z,27.30
2019-03-30T03:37:08.038Z,26.07
2019-03-30T03:38:11.690Z,23.67
2019-03-30T03:39:15.331Z,25.37
2019-03-30T03:40:18.942Z,25.70
2019-03-30T03:41:22.566Z,27.65
2019-03-30T03:42:26.241Z,26.10
2019-03-30T03:43:29.888Z,26.35
2019-03-30T03:44:33.567Z,27.45
2019-03-30T03:45:37.163Z,25.92
2019-03-30T03:46:40.773Z,25.27
2019-03-30T03:47:44.412Z,22.80
2019-03-30T03:48:48.018Z,24.63
2019-03-30T03:49:51.624Z,26.05
2019-03-30T03:50:58.301Z,25.75
2019-03-30T03:52:02.389Z,25.40
2019-03-30T03:53:06.170Z,21.90
2019-03-30T03:54:10.244Z,24.82
2019-03-30T03:55:13.866Z,26.48
2019-03-30T03:56:17.602Z,33.40
2019-03-30T03:57:24.005Z,27.82
2019-03-30T03:58:30.731Z,24.45
2019-03-30T03:59:35.948Z,26.65
2019-03-30T04:00:40.181Z,21.82
2019-03-30T04:01:45.226Z,25.35
2019-03-30T04:02:49.217Z,33.92
2019-03-30T04:03:54.277Z,29.35
2019-03-30T04:05:01.103Z,32.03
2019-03-30T04:06:06.544Z,23.00
2019-03-30T04:07:10.937Z,24.10
2019-03-30T04:08:15.182Z,26.30
2019-03-30T04:09:20.408Z,22.05
2019-03-30T04:10:27.326Z,17.23
2019-03-30T04:11:32.061Z,10.63
2019-03-30T04:12:37.567Z,13.22
2019-03-30T04:13:43.388Z,15.18
2019-03-30T04:14:50.086Z,15.53
2019-03-30T04:15:53.860Z,11.20
2019-03-30T04:16:57.593Z,12.15
2019-03-30T04:18:01.191Z,9.33
2019-03-30T04:19:04.854Z,11.48
2019-03-30T04:20:08.589Z,11.83
2019-03-30T04:21:12.262Z,10.98
2019-03-30T04:22:15.852Z,10.40
2019-03-30T04:23:19.453Z,10.50
2019-03-30T04:24:23.094Z,11.40
2019-03-30T04:25:26.689Z,13.70
2019-03-30T04:26:30.359Z,12.23
2019-03-30T04:27:33.947Z,9.55
2019-03-30T04:28:37.569Z,12.47
2019-03-30T04:29:41.142Z,13.75
2019-03-30T04:30:44.801Z,15.70
2019-03-30T04:31:48.426Z,21.82
2019-03-30T04:32:52.043Z,16.48
2019-03-30T04:33:55.647Z,15.32
2019-03-30T04:34:59.242Z,18.45
2019-03-30T04:36:02.904Z,16.48
2019-03-30T04:37:06.506Z,20.70
2019-03-30T04:38:14.086Z,17.80
2019-03-30T04:39:15.373Z,20.85
2019-03-30T04:40:19.108Z,24.60
2019-03-30T04:41:22.892Z,26.42
2019-03-30T04:42:26.504Z,26.90
2019-03-30T04:43:30.113Z,26.15
2019-03-30T04:44:33.783Z,29.72
2019-03-30T04:45:37.379Z,35.45
2019-03-30T04:46:40.999Z,28.75
2019-03-30T04:47:44.623Z,28.92
2019-03-30T04:48:48.223Z,25.23
2019-03-30T04:49:51.869Z,27.98
2019-03-30T04:50:55.523Z,26.77
2019-03-30T04:51:59.117Z,24.55
2019-03-30T04:53:02.729Z,27.75
2019-03-30T04:54:06.341Z,22.32
2019-03-30T04:55:11.007Z,29.72
2019-03-30T04:56:14.665Z,30.20
2019-03-30T04:57:18.275Z,27.02
2019-03-30T04:58:21.886Z,25.27
2019-03-30T04:59:25.480Z,28.20
2019-03-30T05:00:29.127Z,26.57
2019-03-30T05:01:32.732Z,26.73
2019-03-30T05:02:36.430Z,29.02
2019-03-30T05:03:40.040Z,30.72
2019-03-30T05:04:43.694Z,29.80
2019-03-30T05:05:47.374Z,25.57
2019-03-30T05:06:51.024Z,35.20
2019-03-30T05:07:54.581Z,23.50
2019-03-30T05:08:58.184Z,26.57
2019-03-30T05:10:01.845Z,24.55
2019-03-30T05:11:05.525Z,26.02
2019-03-30T05:12:09.134Z,29.07
2019-03-30T05:13:12.735Z,29.35
2019-03-30T05:14:16.651Z,28.55
2019-03-30T05:15:20.258Z,26.97
2019-03-30T05:16:23.849Z,27.87
2019-03-30T05:17:27.455Z,23.10
2019-03-30T05:18:31.054Z,24.43
2019-03-30T05:19:34.696Z,29.00
2019-03-30T05:20:38.295Z,31.80
2019-03-30T05:21:41.899Z,27.22
2019-03-30T05:22:45.568Z,24.80
2019-03-30T05:23:49.168Z,26.70
2019-03-30T05:24:52.819Z,26.40
2019-03-30T05:25:56.429Z,26.15
2019-03-30T05:27:00.069Z,24.37
2019-03-30T05:28:03.686Z,25.40
2019-03-30T05:29:07.289Z,26.37
2019-03-30T05:30:12.446Z,24.92
2019-03-30T05:31:16.040Z,23.05
2019-03-30T05:32:19.696Z,26.15
2019-03-30T05:33:23.256Z,29.23
2019-03-30T05:34:26.856Z,28.42
2019-03-30T05:35:30.465Z,26.57
2019-03-30T05:36:34.118Z,25.30
2019-03-30T05:37:37.726Z,26.95
2019-03-30T05:38:41.375Z,24.63
2019-03-30T05:39:44.983Z,24.60
2019-03-30T05:40:48.626Z,25.52
2019-03-30T05:41:52.218Z,30.80
2019-03-30T05:42:55.945Z,24.87
2019-03-30T05:43:59.554Z,30.02
2019-03-30T05:45:03.229Z,23.77
2019-03-30T05:46:06.866Z,26.35
2019-03-30T05:47:10.475Z,29.52
2019-03-30T05:48:14.078Z,28.52
2019-03-30T05:49:17.889Z,33.45
2019-03-30T05:50:21.513Z,22.73
2019-03-30T05:51:25.166Z,27.82
2019-03-30T05:52:28.759Z,25.70
2019-03-30T05:53:32.368Z,30.45
2019-03-30T05:54:36.047Z,27.90
2019-03-30T05:55:39.666Z,30.52
2019-03-30T05:56:43.320Z,27.42
2019-03-30T05:57:46.932Z,29.98
2019-03-30T05:58:50.549Z,29.72
2019-03-30T05:59:55.847Z,30.70
2019-03-30T06:00:59.448Z,26.10
2019-03-30T06:02:03.107Z,29.30
2019-03-30T06:03:06.712Z,30.43
2019-03-30T06:04:10.317Z,31.50
2019-03-30T06:05:13.914Z,31.48
2019-03-30T06:06:17.520Z,27.15
2019-03-30T06:07:21.163Z,32.42
2019-03-30T06:08:24.764Z,31.85
2019-03-30T06:09:28.436Z,37.20
2019-03-30T06:10:32.045Z,31.27
2019-03-30T06:11:35.664Z,30.88
2019-03-30T06:12:39.315Z,34.18
2019-03-30T06:13:42.910Z,31.45
2019-03-30T06:14:46.516Z,30.08
2019-03-30T06:15:50.172Z,29.77
2019-03-30T06:16:53.775Z,29.00
2019-03-30T06:17:57.418Z,29.40
2019-03-30T06:19:01.020Z,29.42
2019-03-30T06:20:08.715Z,27.58
2019-03-30T06:21:12.320Z,28.10
2019-03-30T06:22:15.912Z,29.67
2019-03-30T06:23:19.584Z,27.60
2019-03-30T06:24:23.235Z,29.00
2019-03-30T06:25:26.863Z,30.50
2019-03-30T06:26:30.461Z,36.33
2019-03-30T06:27:34.068Z,35.85
2019-03-30T06:28:37.687Z,33.53
2019-03-30T06:29:41.346Z,32.42
2019-03-30T06:30:44.951Z,32.75
2019-03-30T06:31:48.555Z,33.80
2019-03-30T06:32:52.195Z,33.45
2019-03-30T06:33:55.801Z,33.13
2019-03-30T06:34:59.405Z,34.45
2019-03-30T06:36:03.017Z,35.58
2019-03-30T06:37:06.688Z,30.48
2019-03-30T06:38:10.291Z,35.70
2019-03-30T06:39:13.904Z,40.70
2019-03-30T06:40:17.513Z,34.78
2019-03-30T06:41:21.162Z,31.12
2019-03-30T06:42:24.768Z,35.90
2019-03-30T06:43:28.375Z,34.48
2019-03-30T06:44:31.983Z,30.10
2019-03-30T06:45:35.640Z,30.43
2019-03-30T06:46:39.599Z,30.92
2019-03-30T06:47:43.458Z,33.67
2019-03-30T06:48:47.212Z,38.25
2019-03-30T06:49:50.821Z,37.45
2019-03-30T06:50:54.430Z,32.35
2019-03-30T06:51:58.042Z,34.43
2019-03-30T06:53:01.686Z,31.82
2019-03-30T06:54:05.280Z,30.70
2019-03-30T06:55:10.688Z,41.05
2019-03-30T06:56:14.297Z,31.20
2019-03-30T06:57:17.964Z,28.57
2019-03-30T06:58:21.573Z,28.35
2019-03-30T06:59:25.174Z,32.15
2019-03-30T07:00:32.995Z,30.70
2019-03-30T07:01:36.888Z,30.75
2019-03-30T07:02:41.938Z,29.35
2019-03-30T07:03:45.680Z,35.65
2019-03-30T07:04:49.664Z,29.25
2019-03-30T07:05:54.007Z,31.80
2019-03-30T07:06:57.804Z,32.65
2019-03-30T07:08:02.355Z,33.13
2019-03-30T07:09:06.547Z,39.48
2019-03-30T07:10:10.331Z,36.50
2019-03-30T07:11:20.973Z,32.30
2019-03-30T07:12:24.204Z,36.00
2019-03-30T07:13:30.542Z,34.90
2019-03-30T07:14:37.002Z,32.15
2019-03-30T07:15:45.144Z,35.68
2019-03-30T07:16:51.258Z,33.98
2019-03-30T07:17:57.714Z,36.80
2019-03-30T07:19:03.841Z,35.45
2019-03-30T07:20:13.296Z,31.55
2019-03-30T07:21:16.901Z,33.65
2019-03-30T07:22:20.550Z,34.83
2019-03-30T07:23:24.157Z,35.13
2019-03-30T07:24:27.775Z,31.40
2019-03-30T07:25:31.428Z,30.82
2019-03-30T07:26:35.028Z,34.08
2019-03-30T07:27:38.637Z,33.30
2019-03-30T07:28:42.316Z,32.85
2019-03-30T07:29:45.918Z,33.15
2019-03-30T07:30:49.544Z,34.33
2019-03-30T07:31:53.189Z,33.28
2019-03-30T07:32:56.851Z,36.15
2019-03-30T07:34:00.466Z,31.55
2019-03-30T07:35:05.627Z,33.05
2019-03-30T07:36:09.242Z,35.08
2019-03-30T07:37:12.830Z,36.63
2019-03-30T07:38:16.497Z,35.10
2019-03-30T07:39:20.096Z,38.35
2019-03-30T07:40:23.771Z,37.10
2019-03-30T07:41:27.376Z,34.00
2019-03-30T07:42:31.029Z,29.98
2019-03-30T07:43:34.683Z,32.65
2019-03-30T07:44:38.348Z,34.05
2019-03-30T07:45:41.959Z,34.23
2019-03-30T07:46:45.606Z,33.85
2019-03-30T07:47:49.210Z,31.10
2019-03-30T07:48:52.988Z,36.42
2019-03-30T07:49:56.659Z,35.40
2019-03-30T07:51:00.314Z,35.30
2019-03-30T07:52:03.931Z,33.70
2019-03-30T07:53:07.579Z,31.15
2019-03-30T07:54:11.211Z,31.30
2019-03-30T07:55:15.001Z,33.92
2019-03-30T07:56:18.606Z,36.35
2019-03-30T07:57:22.269Z,31.15
2019-03-30T07:58:25.924Z,36.83
2019-03-30T07:59:29.534Z,35.98
2019-03-30T08:00:33.154Z,30.20
2019-03-30T08:01:36.762Z,34.67
2019-03-30T08:02:40.366Z,32.73
2019-03-30T08:03:44.019Z,38.13
2019-03-30T08:04:47.665Z,31.57
2019-03-30T08:05:54.263Z,31.65
2019-03-30T08:06:56.528Z,31.25
2019-03-30T08:08:00.208Z,31.97
2019-03-30T08:09:05.377Z,39.95
2019-03-30T08:10:09.374Z,33.58
2019-03-30T08:11:14.530Z,39.90
2019-03-30T08:12:18.300Z,29.18
2019-03-30T08:13:21.952Z,36.38
2019-03-30T08:14:25.571Z,33.75
2019-03-30T08:15:29.356Z,30.23
2019-03-30T08:16:33.015Z,30.30
2019-03-30T08:17:36.801Z,28.65
2019-03-30T08:18:40.408Z,38.33
2019-03-30T08:19:44.009Z,32.08
2019-03-30T08:20:47.610Z,32.30
2019-03-30T08:21:51.282Z,32.28
2019-03-30T08:22:54.889Z,29.67
2019-03-30T08:23:58.548Z,31.80
2019-03-30T08:25:02.220Z,26.82
2019-03-30T08:26:06.100Z,29.42
2019-03-30T08:27:09.703Z,31.42
2019-03-30T08:28:13.307Z,30.05
2019-03-30T08:29:16.953Z,33.08
2019-03-30T08:30:20.617Z,28.42
2019-03-30T08:31:24.249Z,23.52
2019-03-30T08:32:27.842Z,28.27
2019-03-30T08:33:31.499Z,26.23
2019-03-30T08:34:35.132Z,24.52
2019-03-30T08:35:38.742Z,24.30
2019-03-30T08:36:42.358Z,23.87
2019-03-30T08:37:45.975Z,29.15
2019-03-30T08:38:49.618Z,23.70
2019-03-30T08:39:53.236Z,21.60
2019-03-30T08:40:56.847Z,23.27
2019-03-30T08:42:00.490Z,25.30
2019-03-30T08:43:04.096Z,21.87
2019-03-30T08:44:07.774Z,23.47
2019-03-30T08:45:11.915Z,25.48
2019-03-30T08:46:15.185Z,23.25
2019-03-30T08:47:18.790Z,23.10
2019-03-30T08:48:22.399Z,22.77
2019-03-30T08:49:26.055Z,22.02
2019-03-30T08:50:29.720Z,29.52
2019-03-30T08:51:33.330Z,27.00
2019-03-30T08:52:36.942Z,25.32
2019-03-30T08:53:53.752Z,23.22
2019-03-30T08:54:45.863Z,23.42
2019-03-30T08:55:49.456Z,22.58
2019-03-30T08:56:53.059Z,20.10
2019-03-30T08:57:56.673Z,22.87
2019-03-30T08:59:00.293Z,28.32
2019-03-30T09:00:05.183Z,20.65
2019-03-30T09:01:08.802Z,21.23
2019-03-30T09:02:12.416Z,24.63
2019-03-30T09:03:16.030Z,24.63
2019-03-30T09:04:19.731Z,22.45
2019-03-30T09:05:23.568Z,25.72
2019-03-30T09:06:27.288Z,23.92
2019-03-30T09:07:30.896Z,26.62
2019-03-30T09:08:34.500Z,22.77
2019-03-30T09:09:38.116Z,25.75
2019-03-30T09:10:43.345Z,24.37
2019-03-30T09:11:49.794Z,28.05
2019-03-30T09:12:53.408Z,21.17
2019-03-30T09:13:57.026Z,22.37
2019-03-30T09:15:00.665Z,22.10
2019-03-30T09:16:06.863Z,22.27
2019-03-30T09:17:10.646Z,22.55
2019-03-30T09:18:14.321Z,24.43
2019-03-30T09:19:17.983Z,23.90
2019-03-30T09:20:23.133Z,25.90
2019-03-30T09:21:26.753Z,23.90
2019-03-30T09:22:30.410Z,25.40
2019-03-30T09:23:34.080Z,24.43
2019-03-30T09:24:37.749Z,23.67
2019-03-30T09:25:41.363Z,20.30
2019-03-30T09:26:45.034Z,24.97
2019-03-30T09:27:48.691Z,24.63
2019-03-30T09:28:52.374Z,25.50
2019-03-30T09:29:56.079Z,23.60
2019-03-30T09:30:59.760Z,20.97
2019-03-30T09:32:14.273Z,24.23
2019-03-30T09:33:08.696Z,26.00
2019-03-30T09:34:12.365Z,21.63
2019-03-30T09:35:16.023Z,28.23
2019-03-30T09:36:19.633Z,23.17
2019-03-30T09:37:23.246Z,26.93
2019-03-30T09:38:26.854Z,23.53
2019-03-30T09:39:30.469Z,22.50
2019-03-30T09:40:34.126Z,22.67
2019-03-30T09:41:37.728Z,20.77
2019-03-30T09:42:41.370Z,24.10
2019-03-30T09:43:44.982Z,25.40
2019-03-30T09:44:48.683Z,27.17
2019-03-30T09:45:52.350Z,22.37
2019-03-30T09:46:55.967Z,26.97
2019-03-30T09:47:59.587Z,24.17
2019-03-30T09:49:03.276Z,24.23
2019-03-30T09:50:08.324Z,24.33
2019-03-30T09:51:11.984Z,25.63
2019-03-30T09:52:15.593Z,25.23
2019-03-30T09:53:19.211Z,20.30
2019-03-30T09:54:24.041Z,24.03
2019-03-30T09:55:27.865Z,23.60
2019-03-30T09:56:31.483Z,24.80
2019-03-30T09:57:35.092Z,24.80
2019-03-30T09:58:38.714Z,24.93
2019-03-30T09:59:42.424Z,24.77
2019-03-30T10:00:46.039Z,26.50
2019-03-30T10:01:49.668Z,21.40
2019-03-30T10:02:53.275Z,25.70
2019-03-30T10:03:56.926Z,23.20
2019-03-30T10:05:00.547Z,21.93
2019-03-30T10:06:04.300Z,25.63
2019-03-30T10:07:07.905Z,25.70
2019-03-30T10:08:11.542Z,25.53
2019-03-30T10:09:15.205Z,25.50
2019-03-30T10:10:18.957Z,24.53
2019-03-30T10:11:22.569Z,24.07
2019-03-30T10:12:26.250Z,22.83
2019-03-30T10:13:29.933Z,26.83
2019-03-30T10:14:33.512Z,22.67
2019-03-30T10:15:37.125Z,25.30
2019-03-30T10:16:40.740Z,25.43
2019-03-30T10:17:44.358Z,22.77
2019-03-30T10:18:47.960Z,29.40
2019-03-30T10:20:03.681Z,27.53
2019-03-30T10:20:56.889Z,27.53
2019-03-30T10:22:00.558Z,25.70
2019-03-30T10:23:04.234Z,25.30
2019-03-30T10:24:07.911Z,24.67
2019-03-30T10:25:11.863Z,27.90
2019-03-30T10:26:15.456Z,24.70
2019-03-30T10:27:19.068Z,24.53
2019-03-30T10:28:22.683Z,23.90
2019-03-30T10:29:26.357Z,24.70
2019-03-30T10:30:30.075Z,31.50
2019-03-30T10:31:33.682Z,31.40
2019-03-30T10:32:37.290Z,23.67
2019-03-30T10:33:40.892Z,28.03
2019-03-30T10:34:44.577Z,25.73
2019-03-30T10:35:48.184Z,28.73
2019-03-30T10:36:51.837Z,25.20
2019-03-30T10:37:55.455Z,24.73
2019-03-30T10:38:59.087Z,26.57
2019-03-30T10:40:03.134Z,25.87
2019-03-30T10:41:06.779Z,26.10
2019-03-30T10:42:10.415Z,27.07
2019-03-30T10:43:14.026Z,22.33
2019-03-30T10:44:17.649Z,27.53
2019-03-30T10:45:21.257Z,34.53
2019-03-30T10:46:24.911Z,24.17
2019-03-30T10:47:28.534Z,25.80
2019-03-30T10:48:32.135Z,28.00
2019-03-30T10:49:35.752Z,24.57
2019-03-30T10:50:39.355Z,27.70
2019-03-30T10:51:43.101Z,24.70
2019-03-30T10:52:46.710Z,25.47
2019-03-30T10:53:50.341Z,26.60
2019-03-30T10:54:53.972Z,23.13
2019-03-30T10:55:57.630Z,26.77
2019-03-30T10:57:01.358Z,27.37
2019-03-30T10:58:04.978Z,21.37
2019-03-30T10:59:08.591Z,23.40
2019-03-30T11:00:14.291Z,23.57
2019-03-30T11:01:17.900Z,25.73
2019-03-30T11:02:21.552Z,25.37
2019-03-30T11:03:25.164Z,23.50
2019-03-30T11:04:29.216Z,18.90
2019-03-30T11:05:32.845Z,26.50
2019-03-30T11:06:36.498Z,23.83
2019-03-30T11:07:40.118Z,23.77
2019-03-30T11:08:43.729Z,20.03
2019-03-30T11:09:49.552Z,19.13
2019-03-30T11:10:52.644Z,21.60
2019-03-30T11:11:56.301Z,22.40
2019-03-30T11:12:59.913Z,20.67
2019-03-30T11:14:03.524Z,20.03
2019-03-30T11:15:07.398Z,18.30
2019-03-30T11:16:11.052Z,19.93
2019-03-30T11:17:14.704Z,24.87
2019-03-30T11:18:18.312Z,26.90
2019-03-30T11:19:21.929Z,19.97
2019-03-30T11:20:25.539Z,29.30
2019-03-30T11:21:29.158Z,24.30
2019-03-30T11:22:32.831Z,21.57
2019-03-30T11:23:36.494Z,21.20
2019-03-30T11:24:40.152Z,22.57
2019-03-30T11:25:43.763Z,23.90
2019-03-30T11:26:47.379Z,24.23
2019-03-30T11:27:50.992Z,23.00
2019-03-30T11:28:54.676Z,26.33
2019-03-30T11:29:58.284Z,20.97
2019-03-30T11:31:05.398Z,22.53
2019-03-30T11:32:08.092Z,23.37
2019-03-30T11:33:11.819Z,25.80
2019-03-30T11:34:15.445Z,23.40
2019-03-30T11:35:19.122Z,27.37
2019-03-30T11:36:22.797Z,20.73
2019-03-30T11:37:26.411Z,21.50
2019-03-30T11:38:30.033Z,22.77
2019-03-30T11:39:33.659Z,22.27
2019-03-30T11:40:37.259Z,20.70
2019-03-30T11:41:40.911Z,22.20
2019-03-30T11:42:44.522Z,25.50
2019-03-30T11:43:48.145Z,21.07
2019-03-30T11:44:51.755Z,22.13
2019-03-30T11:45:55.499Z,24.37
2019-03-30T11:46:59.109Z,23.30
2019-03-30T11:48:02.726Z,13.83
2019-03-30T11:49:06.391Z,14.90
2019-03-30T11:50:10.139Z,13.60
2019-03-30T11:51:13.855Z,11.13
2019-03-30T11:52:17.461Z,13.23
2019-03-30T11:53:21.077Z,16.97
2019-03-30T11:54:24.684Z,17.27
2019-03-30T11:55:28.347Z,18.50
2019-03-30T11:56:31.962Z,18.00
2019-03-30T11:57:35.568Z,17.77
2019-03-30T11:58:39.214Z,13.37
2019-03-30T11:59:42.816Z,13.60
2019-03-30T12:00:46.421Z,19.47
2019-03-30T12:01:50.028Z,15.90
2019-03-30T12:02:53.684Z,13.70
2019-03-30T12:03:57.293Z,17.20
2019-03-30T12:05:00.897Z,14.40
2019-03-30T12:06:04.569Z,13.70
2019-03-30T12:07:08.185Z,17.37
2019-03-30T12:08:11.842Z,14.03
2019-03-30T12:09:15.469Z,12.70
2019-03-30T12:10:19.123Z,19.53
2019-03-30T12:11:22.726Z,16.80
2019-03-30T12:12:26.343Z,15.30
2019-03-30T12:13:29.944Z,9.80
2019-03-30T12:14:33.562Z,9.40
2019-03-30T12:15:37.222Z,15.87
2019-03-30T12:16:40.817Z,9.10
2019-03-30T12:17:44.426Z,8.90
2019-03-30T12:18:48.026Z,12.93
2019-03-30T12:19:51.635Z,12.17
2019-03-30T12:20:55.286Z,12.67
2019-03-30T12:21:58.900Z,13.07
2019-03-30T12:23:02.537Z,16.53
2019-03-30T12:24:06.335Z,16.63
2019-03-30T12:25:10.082Z,11.30
2019-03-30T12:26:13.747Z,14.90
2019-03-30T12:27:17.350Z,12.43
2019-03-30T12:28:20.960Z,11.03
2019-03-30T12:29:24.567Z,14.23
2019-03-30T12:30:28.247Z,14.30
2019-03-30T12:31:31.906Z,13.27
2019-03-30T12:32:35.586Z,12.40
2019-03-30T12:33:39.245Z,14.10
2019-03-30T12:34:42.863Z,13.90
2019-03-30T12:35:46.471Z,12.90
2019-03-30T12:36:50.085Z,13.53
2019-03-30T12:37:53.705Z,13.83
2019-03-30T12:38:57.371Z,10.33
2019-03-30T12:40:00.983Z,17.47
2019-03-30T12:41:04.732Z,11.50
2019-03-30T12:42:08.397Z,11.40
2019-03-30T12:43:12.014Z,13.23
2019-03-30T12:44:15.660Z,14.00
2019-03-30T12:45:19.403Z,11.27
2019-03-30T12:46:23.092Z,16.90
2019-03-30T12:47:26.763Z,15.63
2019-03-30T12:48:30.372Z,16.17
2019-03-30T12:49:34.036Z,11.67
2019-03-30T12:50:37.684Z,9.67
2019-03-30T12:51:41.327Z,15.23
2019-03-30T12:52:45.001Z,9.50
2019-03-30T12:53:50.511Z,13.90
2019-03-30T12:54:53.867Z,9.90
2019-03-30T12:55:57.490Z,11.20
2019-03-30T12:57:01.148Z,10.43
2019-03-30T12:58:04.826Z,8.73
2019-03-30T12:59:08.509Z,10.33
2019-03-30T13:00:12.639Z,11.03
2019-03-30T13:01:16.258Z,11.63
2019-03-30T13:02:19.898Z,10.30
2019-03-30T13:03:23.550Z,18.77
2019-03-30T13:04:27.240Z,10.20
2019-03-30T13:05:30.877Z,9.37
2019-03-30T13:06:34.477Z,9.60
2019-03-30T13:07:38.127Z,8.27
2019-03-30T13:08:41.743Z,10.77
2019-03-30T13:09:45.349Z,7.57
2019-03-30T13:10:48.964Z,14.33
2019-03-30T13:11:52.634Z,19.00
2019-03-30T13:12:56.371Z,9.10
2019-03-30T13:13:59.985Z,11.33
2019-03-30T13:15:04.467Z,10.00
2019-03-30T13:16:08.074Z,11.00
2019-03-30T13:17:11.741Z,11.60
2019-03-30T13:18:15.350Z,10.00
2019-03-30T13:19:18.965Z,11.20
2019-03-30T13:20:22.686Z,12.60
2019-03-30T13:21:26.304Z,8.30
2019-03-30T13:22:29.887Z,11.47
2019-03-30T13:23:33.538Z,11.30
2019-03-30T13:24:37.154Z,11.60
2019-03-30T13:25:40.741Z,8.77
2019-03-30T13:26:44.382Z,11.73
2019-03-30T13:27:47.997Z,11.67
2019-03-30T13:28:51.651Z,11.97
2019-03-30T13:29:55.317Z,9.90
2019-03-30T13:30:58.930Z,10.63
2019-03-30T13:32:02.614Z,12.33
2019-03-30T13:33:06.225Z,9.27
2019-03-30T13:34:09.861Z,10.70
2019-03-30T13:35:13.476Z,8.67
2019-03-30T13:36:17.192Z,14.30
2019-03-30T13:37:21.231Z,9.53
2019-03-30T13:38:25.986Z,12.87
2019-03-30T13:39:29.686Z,13.10
2019-03-30T13:40:33.292Z,10.30
2019-03-30T13:41:37.251Z,13.50
2019-03-30T13:42:40.859Z,9.83